LZMC Airport Information

Runway Information
Runway 02 Length 8158 ft width 185 ft
Elevation 0 ft Threshold 0 ft Heading 18
Runway 20 Length 8158 ft Width 185 ft
Elevation 0 ft Threshold 0 ft Heading 198
Airport Frequencies
Type APP Name APP Frequency 118.25 MHZ
Type TWR Name TWR Frequency 118.25 MHZ
Airport Navaids
Type NDB Name Malacky Frequency 477 KHZ
Airport Weather Information & NOTAM
ADDS - METARS form results

(0512 UTC 17 November 2018)
Data provider http://aviationweather.gov/metar/data/
 
Forecast for: LZMC
Text: TAF LZMC 170430Z 1706/1718 VRB04KT CAVOK
Forecast period: 0600 to 1800 UTC 17 November 2018
Forecast type: FROM: standard forecast or significant change
Winds: variable direction winds at 5 MPH (4 knots; 2.1 m/s)
Visibility: 6 or more miles 10+ km)
Ceiling: unknown
Clouds: missing
Weather: NSW  (no significant weather)
Text: TEMPO 1706/1708 5000 BR NSC
Forecast period: 0600 to 0800 UTC 17 November 2018
Forecast type: TEMPORARY: The following changes expected for less than half the time period
Visibility: 3 miles (5 km)
Ceiling: unknown
Clouds: missing
Weather: BR  (mist)
Text: TEMPO 1709/1712 9999 FEW040
Forecast period: 0900 to 1200 UTC 17 November 2018
Forecast type: TEMPORARY: The following changes expected for less than half the time period
Visibility: 6 or more miles 10+ km)
Ceiling: at least 12,000 feet AGL
Clouds: few clouds at 4000 feet AGL
Weather: no significant weather forecast for this period